ADDS METAR Data INFO
IDs: Format: Raw Decoded Include TAF

Data at: 0712 UTC 19 Oct 2017

KHKA 190653Z AUTO 18006KT 10SM CLR 13/09 A3019 RMK AO2 SLP221 T01280094
KHKA 190553Z AUTO 17006KT 10SM CLR 13/09 A3019 RMK AO2 SLP222 T01280094 10183 20128 402330089 58000
KHKA 190453Z AUTO 17008KT 10SM CLR 13/10 A3019 RMK AO2 SLP221 T01330100
KHKA 190353Z AUTO 16007KT 10SM CLR 13/10 A3020 RMK AO2 SLP224 T01330100
KHKA 190253Z AUTO 16006KT 10SM CLR 14/11 A3019 RMK AO2 SLP222 T01440106 51002
KHKA 190153Z AUTO 17005KT 10SM CLR 16/10 A3019 RMK AO2 SLP221 T01610100
KHKA 190053Z AUTO 16004KT 10SM CLR 17/10 A3019 RMK AO2 SLP221 T01670100
KHKA 182353Z AUTO 18005KT 10SM CLR 17/11 A3018 RMK AO2 SLP220 T01720106 10233 20172 53001
KHKA 182253Z AUTO 18005KT 10SM CLR 21/10 A3018 RMK AO2 SLP219 T02110100
KHKA 182153Z AUTO 17010KT 10SM CLR 23/09 A3018 RMK AO2 SLP219 T02280089
KHKA 182053Z AUTO 16009KT 10SM CLR 23/09 A3018 RMK AO2 SLP219 T02330094 56019
KHKA 181953Z AUTO 21006KT 10SM CLR 23/10 A3018 RMK AO2 SLP220 T02280100
KHKA 181853Z AUTO 21007KT 180V250 10SM CLR 23/09 A3021 RMK AO2 SLP229 T02280094
KHKA 181753Z AUTO 23007G15KT 10SM CLR 22/09 A3024 RMK AO2 SLP238 T02170094 10222 20094 58016
KHKA 181653Z AUTO 20009KT 10SM CLR 21/09 A3027 RMK AO2 SLP249 T02110094
KHKA 181553Z AUTO 18007KT 130V200 10SM CLR 20/11 A3029 RMK AO2 SLP254 T02000106
KHKA 181453Z AUTO 18008KT 10SM CLR 17/11 A3028 RMK AO2 SLP254 T01720106 53014
KHKA 181353Z AUTO 18008KT 10SM CLR 14/10 A3027 RMK AO2 SLP249 T01390100
KHKA 181253Z AUTO 16005KT 10SM CLR 11/09 A3025 RMK AO2 SLP245 T01060089
KHKA 181153Z AUTO 16006KT 10SM CLR 09/08 A3024 RMK AO2 SLP242 T00940078 10111 20089 52005
KHKA 181053Z AUTO 16005KT 10SM CLR 09/08 A3024 RMK AO2 SLP240 T00940078
KHKA 180953Z AUTO 16006KT 10SM CLR 10/08 A3023 RMK AO2 SLP236 T01000078
KHKA 180853Z AUTO 17005KT 10SM CLR 11/08 A3023 RMK AO2 SLP235 T01060083 50000
KHKA 180753Z AUTO 18004KT 10SM CLR 11/08 A3023 RMK AO2 SLP236 T01060083
KHKA 180653Z AUTO 00000KT 10SM CLR 10/08 A3023 RMK AO2 SLP236 T01000078
KHKA 180553Z AUTO 15003KT 10SM CLR 09/08 A3023 RMK AO2 SLP235 T00940083 10156 20094 402110044 57005
KHKA 180453Z AUTO 00000KT 10SM CLR 09/08 A3023 RMK AO2 SLP237 T00940083
KHKA 180353Z AUTO 12003KT 10SM CLR 11/08 A3024 RMK AO2 SLP238 T01060083
KHKA 180253Z AUTO 12003KT 10SM CLR 11/08 A3024 RMK AO2 SLP240 T01110078 51006
KHKA 180153Z AUTO 10005KT 10SM CLR 12/08 A3024 RMK AO2 SLP239 T01220078
KHKA 180053Z AUTO 08003KT 10SM CLR 13/07 A3023 RMK AO2 SLP238 T01280072
KHKA 172353Z AUTO 00000KT 10SM CLR 16/07 A3023 RMK AO2 SLP235 T01560072 10211 20156 56005
KHKA 172253Z AUTO 09003KT 10SM CLR 19/07 A3023 RMK AO2 SLP235 T01940072
KHKA 172153Z AUTO 11005KT 10SM CLR 20/06 A3023 RMK AO2 SLP236 T02000061
KHKA 172053Z AUTO 00000KT 10SM CLR 21/06 A3024 RMK AO2 SLP239 T02060056 56024
KHKA 171953Z AUTO 11003KT 10SM CLR 21/05 A3025 RMK AO2 SLP244 T02060050